createdAt,value
2022-08-04T00:00:13.939Z,60.50
2022-08-04T00:02:59.722Z,60.80
2022-08-04T00:05:54.211Z,60.50
2022-08-04T00:08:48.635Z,61.10
2022-08-04T00:11:25.051Z,61.00
2022-08-04T00:14:12.793Z,61.00
2022-08-04T00:16:41.922Z,61.10
2022-08-04T00:19:16.518Z,61.00
2022-08-04T00:21:48.030Z,61.20
2022-08-04T00:24:16.154Z,61.10
2022-08-04T00:26:43.647Z,61.00
2022-08-04T00:29:10.752Z,61.10
2022-08-04T00:31:54.773Z,61.30
2022-08-04T00:34:28.283Z,61.30
2022-08-04T00:36:56.454Z,61.40
2022-08-04T00:39:23.677Z,61.30
2022-08-04T00:42:17.625Z,61.40
2022-08-04T00:45:02.295Z,61.80
2022-08-04T00:47:56.650Z,61.90
2022-08-04T00:51:05.260Z,62.10
2022-08-04T00:53:50.197Z,61.90
2022-08-04T00:56:42.702Z,62.10
2022-08-04T00:59:09.314Z,61.90
2022-08-04T01:01:55.259Z,61.90
2022-08-04T01:04:45.646Z,62.30
2022-08-04T01:07:40.872Z,62.20
2022-08-04T01:10:27.781Z,62.70
2022-08-04T01:13:29.534Z,62.60
2022-08-04T01:16:07.599Z,62.80
2022-08-04T01:19:01.193Z,63.00
2022-08-04T01:21:40.124Z,63.00
2022-08-04T01:24:23.095Z,62.90
2022-08-04T01:27:01.226Z,62.80
2022-08-04T01:29:48.676Z,63.20
2022-08-04T01:32:30.965Z,63.30
2022-08-04T01:35:05.197Z,63.40
2022-08-04T01:37:45.082Z,63.30
2022-08-04T01:40:14.650Z,63.60
2022-08-04T01:42:42.891Z,63.30
2022-08-04T01:45:12.125Z,63.20
2022-08-04T01:47:43.081Z,63.30
2022-08-04T01:50:13.272Z,63.50
2022-08-04T01:52:47.607Z,63.40
2022-08-04T01:55:18.062Z,63.40
2022-08-04T01:57:47.061Z,63.40
2022-08-04T02:00:17.325Z,63.50
2022-08-04T02:02:45.676Z,63.50
2022-08-04T02:05:15.869Z,63.50
2022-08-04T02:08:15.724Z,63.60
2022-08-04T02:10:42.359Z,64.00
2022-08-04T02:13:41.589Z,63.70
2022-08-04T02:16:20.430Z,63.90
2022-08-04T02:19:24.666Z,63.90
2022-08-04T02:21:57.758Z,63.90
2022-08-04T02:24:27.839Z,63.80
2022-08-04T02:26:56.579Z,64.00
2022-08-04T02:29:37.767Z,64.10
2022-08-04T02:32:07.412Z,64.20
2022-08-04T02:34:39.889Z,64.30
2022-08-04T02:37:09.085Z,64.50
2022-08-04T02:39:48.808Z,64.40
2022-08-04T02:42:18.000Z,64.60
2022-08-04T02:44:50.599Z,64.40
2022-08-04T02:47:21.717Z,64.80
2022-08-04T02:49:51.318Z,64.70
2022-08-04T02:52:19.910Z,65.00
2022-08-04T02:54:50.811Z,64.90
2022-08-04T02:57:20.046Z,64.90
2022-08-04T03:00:19.837Z,64.90
2022-08-04T03:02:56.218Z,65.50
2022-08-04T03:05:27.998Z,65.40
2022-08-04T03:08:21.497Z,65.40
2022-08-04T03:10:58.984Z,65.70
2022-08-04T03:14:02.067Z,65.70
2022-08-04T03:17:09.747Z,66.30
2022-08-04T03:20:11.651Z,65.90
2022-08-04T03:23:13.433Z,66.20
2022-08-04T03:26:02.142Z,66.00
2022-08-04T03:29:06.191Z,66.20
2022-08-04T03:35:03.450Z,66.40
2022-08-04T03:37:57.488Z,66.60
2022-08-04T03:40:59.294Z,66.90
2022-08-04T03:44:02.760Z,67.20
2022-08-04T03:46:53.947Z,67.30
2022-08-04T03:49:20.565Z,66.90
2022-08-04T03:52:17.837Z,66.90
2022-08-04T03:55:21.606Z,67.20
2022-08-04T03:57:53.655Z,67.40
2022-08-04T04:00:34.149Z,67.20
2022-08-04T04:03:29.127Z,67.40
2022-08-04T04:06:23.248Z,67.70
2022-08-04T04:09:21.128Z,67.70
2022-08-04T04:12:07.493Z,67.60
2022-08-04T04:14:37.109Z,67.70
2022-08-04T04:17:41.416Z,67.70
2022-08-04T04:20:26.419Z,67.80
2022-08-04T04:22:56.114Z,67.50
2022-08-04T04:26:03.719Z,67.90
2022-08-04T04:28:49.586Z,67.70
2022-08-04T04:31:45.430Z,67.60
2022-08-04T04:34:45.642Z,67.70
2022-08-04T04:37:30.381Z,67.80
2022-08-04T04:40:03.581Z,67.70
2022-08-04T04:42:36.208Z,67.70
2022-08-04T04:45:31.854Z,67.70
2022-08-04T04:48:16.349Z,67.90
2022-08-04T04:51:10.836Z,67.80
2022-08-04T04:54:00.547Z,68.00
2022-08-04T04:56:38.665Z,67.70
2022-08-04T04:59:15.405Z,67.80
2022-08-04T05:02:12.713Z,67.70
2022-08-04T05:04:54.637Z,68.20
2022-08-04T05:07:50.245Z,68.00
2022-08-04T05:10:40.799Z,68.00
2022-08-04T05:14:37.802Z,67.90
2022-08-04T05:16:35.904Z,67.90
2022-08-04T05:19:08.565Z,68.10
2022-08-04T05:21:43.910Z,67.90
2022-08-04T05:24:13.925Z,67.90
2022-08-04T05:26:51.502Z,67.90
2022-08-04T05:29:37.653Z,67.90
2022-08-04T05:32:13.038Z,67.90
2022-08-04T05:34:43.718Z,67.70
2022-08-04T05:37:17.147Z,67.70
2022-08-04T05:39:53.226Z,67.60
2022-08-04T05:42:21.364Z,67.50
2022-08-04T05:44:51.270Z,67.40
2022-08-04T05:47:21.316Z,68.00
2022-08-04T05:50:01.406Z,67.10
2022-08-04T05:52:31.436Z,67.20
2022-08-04T05:55:00.289Z,67.10
2022-08-04T05:57:28.341Z,67.30
2022-08-04T05:59:57.372Z,67.10
2022-08-04T06:02:25.301Z,66.90
2022-08-04T06:04:53.062Z,66.70
2022-08-04T06:07:20.077Z,66.60
2022-08-04T06:09:46.962Z,66.50
2022-08-04T06:12:27.777Z,66.40
2022-08-04T06:14:57.778Z,66.10
2022-08-04T06:18:33.550Z,66.00
2022-08-04T06:20:23.180Z,66.00
2022-08-04T06:22:59.936Z,66.00
2022-08-04T06:25:33.020Z,66.10
2022-08-04T06:28:01.533Z,66.50
2022-08-04T06:30:32.198Z,66.60
2022-08-04T06:33:04.372Z,66.20
2022-08-04T06:35:33.113Z,66.00
2022-08-04T06:38:01.622Z,66.00
2022-08-04T06:40:33.216Z,65.90
2022-08-04T06:43:02.858Z,65.90
2022-08-04T06:45:31.106Z,65.90
2022-08-04T06:47:58.911Z,65.40
2022-08-04T06:51:28.203Z,65.60
2022-08-04T06:53:14.009Z,65.60
2022-08-04T06:55:43.451Z,65.80
2022-08-04T06:58:10.773Z,65.10
2022-08-04T07:00:39.274Z,64.20
2022-08-04T07:03:07.446Z,64.00
2022-08-04T07:05:35.850Z,63.70
2022-08-04T07:08:03.702Z,63.30
2022-08-04T07:10:31.466Z,63.00
2022-08-04T07:12:59.830Z,62.60
2022-08-04T07:15:27.180Z,62.60
2022-08-04T07:17:54.977Z,62.70
2022-08-04T07:20:35.044Z,62.50
2022-08-04T07:23:06.518Z,62.00
2022-08-04T07:25:59.532Z,62.10
2022-08-04T07:28:27.116Z,61.70
2022-08-04T07:30:55.156Z,61.20
2022-08-04T07:33:23.382Z,61.20
2022-08-04T07:36:04.695Z,60.30
2022-08-04T07:38:48.338Z,59.90
2022-08-04T07:41:37.756Z,59.70
2022-08-04T07:44:05.122Z,59.00
2022-08-04T07:46:32.182Z,59.10
2022-08-04T07:49:01.174Z,58.60
2022-08-04T07:51:30.404Z,57.40
2022-08-04T07:53:58.092Z,57.40
2022-08-04T07:56:26.650Z,57.10
2022-08-04T07:58:54.042Z,56.10
2022-08-04T08:01:21.535Z,55.90
2022-08-04T08:03:49.484Z,55.00
2022-08-04T08:06:32.972Z,54.40
2022-08-04T08:09:13.765Z,54.40
2022-08-04T08:12:36.347Z,53.90
2022-08-04T08:14:36.688Z,52.60
2022-08-04T08:17:04.600Z,52.80
2022-08-04T08:19:32.836Z,52.20
2022-08-04T08:22:01.436Z,51.70
2022-08-04T08:24:30.480Z,51.70
2022-08-04T08:26:57.630Z,51.80
2022-08-04T08:29:25.732Z,51.80
2022-08-04T08:31:57.320Z,51.80
2022-08-04T08:34:30.844Z,52.00
2022-08-04T08:37:20.666Z,50.90
2022-08-04T08:40:04.242Z,50.30
2022-08-04T08:44:06.271Z,49.90
2022-08-04T08:46:45.559Z,49.70
2022-08-04T08:50:02.847Z,49.20
2022-08-04T08:53:00.984Z,49.20
2022-08-04T08:55:58.102Z,48.80
2022-08-04T08:58:48.726Z,48.40
2022-08-04T09:01:52.082Z,49.00
2022-08-04T09:04:38.116Z,48.40
2022-08-04T09:07:32.944Z,47.90
2022-08-04T09:10:36.114Z,47.60
2022-08-04T09:13:08.423Z,47.60
2022-08-04T09:15:54.291Z,47.60
2022-08-04T09:18:32.452Z,47.90
2022-08-04T09:21:23.173Z,47.20
2022-08-04T09:24:36.302Z,46.70
2022-08-04T09:27:01.935Z,46.70
2022-08-04T09:29:48.463Z,46.50
2022-08-04T09:32:38.996Z,46.60
2022-08-04T09:35:39.143Z,46.40
2022-08-04T09:38:33.043Z,45.20
2022-08-04T09:41:20.739Z,45.20
2022-08-04T09:44:50.052Z,45.00
2022-08-04T09:47:39.392Z,44.50
2022-08-04T09:50:31.768Z,44.00
2022-08-04T09:53:06.420Z,44.20
2022-08-04T09:55:54.099Z,44.00
2022-08-04T09:58:40.759Z,43.90
2022-08-04T10:01:22.495Z,43.90
2022-08-04T10:03:58.957Z,43.80
2022-08-04T10:06:42.653Z,43.50
2022-08-04T10:09:40.684Z,43.70
2022-08-04T10:12:31.453Z,43.00
2022-08-04T10:15:25.484Z,42.80
2022-08-04T10:18:18.237Z,42.20
2022-08-04T10:21:13.494Z,42.30
2022-08-04T10:24:09.818Z,42.30
2022-08-04T10:26:56.871Z,42.10
2022-08-04T10:29:46.743Z,41.30
2022-08-04T10:32:25.069Z,40.90
2022-08-04T10:35:21.070Z,41.30
2022-08-04T10:38:01.199Z,41.00
2022-08-04T10:40:45.472Z,40.40
2022-08-04T10:43:21.013Z,40.60
2022-08-04T10:46:01.641Z,40.70
2022-08-04T10:48:58.976Z,40.60
2022-08-04T10:51:58.299Z,39.90
2022-08-04T10:54:51.078Z,39.20
2022-08-04T10:57:21.119Z,39.10
2022-08-04T11:00:00.541Z,38.90
2022-08-04T11:02:55.593Z,38.30
2022-08-04T11:05:25.585Z,38.60
2022-08-04T11:08:00.397Z,38.70
2022-08-04T11:10:32.383Z,39.10
2022-08-04T11:13:29.630Z,39.50
2022-08-04T11:16:02.236Z,39.80
2022-08-04T11:18:41.023Z,40.20
2022-08-04T11:21:31.434Z,40.40
2022-08-04T11:24:16.163Z,41.40
2022-08-04T11:26:55.937Z,41.10
2022-08-04T11:29:34.273Z,41.50
2022-08-04T11:32:04.574Z,40.90
2022-08-04T11:34:33.562Z,40.90
2022-08-04T11:37:13.887Z,41.30
2022-08-04T11:39:49.209Z,41.50
2022-08-04T11:42:30.669Z,41.70
2022-08-04T11:45:16.461Z,41.50
2022-08-04T11:47:55.279Z,41.40
2022-08-04T11:50:29.196Z,41.90
2022-08-04T11:52:58.130Z,42.30
2022-08-04T11:55:27.771Z,42.60
2022-08-04T11:57:55.719Z,42.40
2022-08-04T12:00:25.005Z,42.50
2022-08-04T12:03:18.770Z,42.50
2022-08-04T12:06:18.092Z,42.90
2022-08-04T12:09:04.071Z,42.80
2022-08-04T12:11:33.869Z,43.00
2022-08-04T12:14:27.205Z,43.30
2022-08-04T12:17:02.658Z,42.90
2022-08-04T12:20:04.098Z,42.50
2022-08-04T12:22:41.439Z,42.50
2022-08-04T12:25:16.193Z,42.50
2022-08-04T12:27:47.455Z,42.50
2022-08-04T12:30:58.403Z,42.60
2022-08-04T12:33:12.824Z,42.80
2022-08-04T12:36:05.162Z,43.30
2022-08-04T12:38:47.100Z,43.80
2022-08-04T12:41:20.586Z,44.10
2022-08-04T12:43:47.435Z,44.10
2022-08-04T12:46:26.710Z,44.00
2022-08-04T12:49:01.386Z,44.20
2022-08-04T12:52:05.666Z,44.60
2022-08-04T12:54:29.037Z,44.50
2022-08-04T12:56:59.013Z,45.10
2022-08-04T12:59:26.084Z,45.60
2022-08-04T13:02:10.484Z,45.90
2022-08-04T13:04:42.440Z,46.40
2022-08-04T13:07:37.243Z,46.90
2022-08-04T13:10:13.759Z,48.00
2022-08-04T13:12:55.016Z,48.10
2022-08-04T13:15:23.789Z,49.10
2022-08-04T13:18:14.861Z,49.30
2022-08-04T13:20:43.515Z,50.30
2022-08-04T13:23:21.493Z,50.40
2022-08-04T13:28:42.655Z,51.40
2022-08-04T13:30:24.377Z,51.40
2022-08-04T13:31:14.277Z,52.10
2022-08-04T13:33:46.353Z,52.60
2022-08-04T13:36:14.237Z,52.70
2022-08-04T13:38:53.662Z,53.10
2022-08-04T13:41:22.344Z,53.80
2022-08-04T13:44:19.471Z,53.50
2022-08-04T13:46:51.008Z,53.60
2022-08-04T13:52:10.681Z,53.30
2022-08-04T13:54:44.623Z,53.50
2022-08-04T13:57:23.655Z,53.70
2022-08-04T14:00:01.519Z,53.80
2022-08-04T14:02:37.710Z,54.00
2022-08-04T14:05:19.988Z,54.10
2022-08-04T14:08:17.901Z,54.10
2022-08-04T14:10:54.357Z,54.30
2022-08-04T14:13:41.208Z,54.60
2022-08-04T14:16:17.177Z,54.70
2022-08-04T14:18:44.198Z,54.60
2022-08-04T14:21:15.505Z,54.30
2022-08-04T14:23:56.500Z,54.40
2022-08-04T14:26:33.845Z,54.50
2022-08-04T14:29:26.342Z,54.60
2022-08-04T14:32:03.133Z,54.70
2022-08-04T14:34:31.142Z,54.80
2022-08-04T14:37:18.248Z,54.80
2022-08-04T14:40:17.888Z,55.10
2022-08-04T14:42:54.316Z,54.60
2022-08-04T14:45:30.423Z,54.20
2022-08-04T14:47:57.876Z,54.70
2022-08-04T14:50:39.544Z,54.30
2022-08-04T14:53:13.431Z,54.90
2022-08-04T14:55:44.607Z,54.60
2022-08-04T14:58:34.800Z,54.30
2022-08-04T15:01:09.907Z,54.40
2022-08-04T15:03:49.831Z,53.80
2022-08-04T15:06:22.736Z,54.10
2022-08-04T15:08:55.242Z,54.00
2022-08-04T15:11:24.064Z,54.40
2022-08-04T15:13:52.735Z,54.10
2022-08-04T15:16:20.831Z,54.10
2022-08-04T15:18:49.165Z,54.10
2022-08-04T15:21:17.369Z,54.30
2022-08-04T15:23:44.285Z,54.50
2022-08-04T15:26:15.958Z,54.60
2022-08-04T15:28:50.094Z,54.80
2022-08-04T15:32:04.437Z,55.20
2022-08-04T15:34:08.561Z,54.80
2022-08-04T15:36:42.137Z,54.80
2022-08-04T15:39:36.175Z,55.10
2022-08-04T15:42:16.130Z,55.30
2022-08-04T15:44:51.642Z,55.00
2022-08-04T15:47:18.573Z,55.20
2022-08-04T15:49:45.712Z,55.10
2022-08-04T15:52:18.150Z,55.30
2022-08-04T15:54:52.536Z,55.40
2022-08-04T15:58:02.147Z,55.50
2022-08-04T16:00:49.437Z,55.70
2022-08-04T16:03:53.155Z,55.70
2022-08-04T16:06:26.865Z,56.20
2022-08-04T16:09:04.838Z,55.70
2022-08-04T16:11:37.057Z,55.80
2022-08-04T16:14:03.904Z,55.60
2022-08-04T16:16:36.677Z,55.80
2022-08-04T16:19:09.066Z,56.20
2022-08-04T16:21:48.684Z,56.10
2022-08-04T16:24:22.591Z,56.30
2022-08-04T16:26:56.535Z,56.10
2022-08-04T16:29:23.487Z,56.00
2022-08-04T16:32:05.749Z,56.10
2022-08-04T16:34:49.409Z,56.40
2022-08-04T16:37:19.089Z,56.50
2022-08-04T16:39:49.659Z,56.40
2022-08-04T16:42:29.938Z,56.30
2022-08-04T16:45:17.111Z,56.70
2022-08-04T16:48:07.811Z,56.60
2022-08-04T16:50:49.321Z,57.00
2022-08-04T16:53:53.037Z,57.10
2022-08-04T16:56:06.746Z,57.00
2022-08-04T16:58:36.727Z,57.30
2022-08-04T17:01:28.388Z,57.50
2022-08-04T17:04:04.956Z,58.00
2022-08-04T17:06:41.364Z,57.70
2022-08-04T17:09:16.925Z,58.60
2022-08-04T17:11:45.082Z,58.10
2022-08-04T17:14:11.856Z,57.90
2022-08-04T17:16:43.456Z,58.10
2022-08-04T17:19:23.857Z,58.10
2022-08-04T17:22:03.007Z,58.00
2022-08-04T17:24:31.945Z,57.90
2022-08-04T17:26:59.310Z,58.00
2022-08-04T17:29:44.319Z,58.10
2022-08-04T17:32:20.673Z,58.40
2022-08-04T17:34:53.965Z,58.70
2022-08-04T17:37:52.122Z,58.50
2022-08-04T17:40:22.479Z,58.60
2022-08-04T17:44:04.772Z,58.70
2022-08-04T17:46:28.095Z,58.80
2022-08-04T17:49:12.070Z,59.00
2022-08-04T17:52:06.317Z,58.70
2022-08-04T17:54:39.734Z,58.70
2022-08-04T17:57:19.981Z,58.60
2022-08-04T17:59:57.163Z,59.20
2022-08-04T18:02:35.043Z,59.10
2022-08-04T18:05:11.518Z,59.20
2022-08-04T18:08:39.005Z,59.20
2022-08-04T18:10:44.689Z,59.40
2022-08-04T18:13:27.634Z,60.20
2022-08-04T18:16:04.722Z,59.40
2022-08-04T18:18:31.625Z,59.90
2022-08-04T18:21:02.982Z,59.70
2022-08-04T18:23:32.590Z,59.70
2022-08-04T18:26:02.311Z,59.90
2022-08-04T18:28:30.712Z,60.10
2022-08-04T18:31:00.194Z,60.20
2022-08-04T18:33:40.174Z,60.30
2022-08-04T18:36:33.809Z,60.30
2022-08-04T18:39:12.575Z,60.50
2022-08-04T18:42:02.407Z,60.70
2022-08-04T18:44:31.041Z,60.90
2022-08-04T18:47:19.288Z,60.90
2022-08-04T18:51:00.404Z,61.20
2022-08-04T18:52:33.186Z,61.30
2022-08-04T18:55:01.869Z,61.30
2022-08-04T18:57:58.702Z,61.40
2022-08-04T19:00:19.777Z,61.70
2022-08-04T19:02:47.492Z,61.70
2022-08-04T19:05:17.534Z,61.80
2022-08-04T19:08:02.613Z,62.10
2022-08-04T19:10:32.772Z,62.50
2022-08-04T19:13:01.461Z,62.20
2022-08-04T19:15:34.487Z,62.30
2022-08-04T19:18:02.296Z,62.30
2022-08-04T19:20:33.721Z,62.20
2022-08-04T19:24:30.194Z,62.00
2022-08-04T19:26:02.513Z,61.80
2022-08-04T19:28:34.992Z,61.80
2022-08-04T19:31:04.433Z,61.80
2022-08-04T19:33:59.246Z,61.70
2022-08-04T19:36:19.512Z,61.90
2022-08-04T19:38:46.409Z,62.00
2022-08-04T19:41:15.253Z,62.10
2022-08-04T19:43:46.704Z,62.10
2022-08-04T19:46:14.846Z,62.00
2022-08-04T19:48:44.626Z,62.10
2022-08-04T19:51:27.806Z,62.10
2022-08-04T19:53:59.409Z,61.90
2022-08-04T19:56:40.576Z,61.80
2022-08-04T19:59:09.789Z,62.10
2022-08-04T20:01:44.935Z,62.10
2022-08-04T20:04:15.659Z,62.10
2022-08-04T20:06:42.873Z,62.20
2022-08-04T20:09:25.098Z,62.20
2022-08-04T20:11:57.151Z,62.20
2022-08-04T20:14:31.510Z,62.40
2022-08-04T20:17:12.128Z,62.10
2022-08-04T20:19:51.006Z,62.10
2022-08-04T20:25:27.270Z,62.40
2022-08-04T20:30:42.552Z,62.60
2022-08-04T20:33:09.987Z,62.50
2022-08-04T20:36:03.228Z,62.80
2022-08-04T20:38:32.813Z,62.90
2022-08-04T20:41:00.599Z,62.90
2022-08-04T20:43:28.173Z,63.10
2022-08-04T20:45:59.620Z,63.30
2022-08-04T20:48:33.589Z,63.50
2022-08-04T20:51:00.663Z,63.70
2022-08-04T20:53:46.898Z,63.30
2022-08-04T20:56:19.159Z,63.30
2022-08-04T20:58:58.354Z,63.10
2022-08-04T21:01:29.716Z,62.90
2022-08-04T21:04:27.313Z,62.60
2022-08-04T21:06:56.214Z,62.40
2022-08-04T21:09:37.120Z,62.20
2022-08-04T21:12:06.942Z,62.00
2022-08-04T21:14:34.708Z,61.80
2022-08-04T21:17:03.820Z,61.90
2022-08-04T21:19:31.711Z,61.60
2022-08-04T21:21:58.721Z,61.50
2022-08-04T21:24:26.442Z,61.50
2022-08-04T21:26:56.581Z,61.60
2022-08-04T21:32:12.000Z,61.70
2022-08-04T21:34:40.656Z,61.80
2022-08-04T21:37:10.379Z,62.00
2022-08-04T21:39:50.663Z,62.20
2022-08-04T21:42:28.677Z,62.40
2022-08-04T21:44:57.342Z,62.50
2022-08-04T21:47:24.158Z,62.50
2022-08-04T21:49:56.420Z,62.70
2022-08-04T21:52:24.730Z,62.70
2022-08-04T21:54:54.502Z,62.80
2022-08-04T21:57:24.812Z,63.10
2022-08-04T21:59:52.580Z,62.70
2022-08-04T22:02:19.481Z,62.70
2022-08-04T22:04:48.126Z,62.70
2022-08-04T22:07:16.588Z,62.80
2022-08-04T22:10:00.156Z,62.90
2022-08-04T22:12:27.308Z,62.80
2022-08-04T22:14:57.718Z,62.70
2022-08-04T22:17:35.009Z,62.60
2022-08-04T22:20:02.806Z,62.40
2022-08-04T22:22:29.949Z,62.10
2022-08-04T22:25:01.287Z,61.90
2022-08-04T22:27:55.115Z,62.10
2022-08-04T22:30:22.454Z,62.20
2022-08-04T22:32:50.383Z,63.10
2022-08-04T22:35:43.661Z,62.40
2022-08-04T22:38:24.182Z,62.50
2022-08-04T22:41:03.723Z,62.50
2022-08-04T22:43:34.447Z,62.70
2022-08-04T22:46:07.303Z,62.60
2022-08-04T22:48:38.848Z,62.50
2022-08-04T22:51:07.298Z,62.30
2022-08-04T22:53:34.506Z,62.10
2022-08-04T22:56:09.435Z,62.10
2022-08-04T22:58:45.477Z,62.10
2022-08-04T23:01:18.724Z,62.10
2022-08-04T23:03:50.907Z,62.00
2022-08-04T23:06:24.653Z,62.00
2022-08-04T23:08:51.847Z,62.10
2022-08-04T23:11:18.740Z,62.10
2022-08-04T23:13:45.603Z,62.30
2022-08-04T23:16:14.086Z,62.80
2022-08-04T23:18:42.255Z,63.50
2022-08-04T23:21:12.114Z,63.80
2022-08-04T23:23:45.598Z,64.20
2022-08-04T23:26:27.428Z,64.70
2022-08-04T23:28:56.155Z,65.00
2022-08-04T23:31:23.406Z,65.20
2022-08-04T23:33:52.157Z,65.80
2022-08-04T23:36:29.935Z,66.30
2022-08-04T23:39:03.932Z,66.60
2022-08-04T23:41:55.292Z,67.20
2022-08-04T23:44:24.420Z,66.70
2022-08-04T23:46:58.285Z,66.70
2022-08-04T23:49:25.243Z,68.10
2022-08-04T23:52:07.617Z,67.70
2022-08-04T23:54:42.757Z,68.20
2022-08-04T23:57:17.263Z,68.60
2022-08-04T23:59:52.156Z,69.70
